sensor_id;sensor_type;location;lat;lon;timestamp;pressure;altitude;pressure_sealevel;temperature;humidity
50302;BME280;36550;50.472;19.744;2023-09-19T00:00:44;97501.88;;;17.36;73.89
50302;BME280;36550;50.472;19.744;2023-09-19T00:03:30;97505.40;;;17.35;73.89
50302;BME280;36550;50.472;19.744;2023-09-19T00:06:15;97504.52;;;17.34;74.02
50302;BME280;36550;50.472;19.744;2023-09-19T00:08:59;97506.94;;;17.32;74.04
50302;BME280;36550;50.472;19.744;2023-09-19T00:11:44;97503.63;;;17.29;74.25
50302;BME280;36550;50.472;19.744;2023-09-19T00:14:28;97504.62;;;17.27;74.45
50302;BME280;36550;50.472;19.744;2023-09-19T00:17:12;97504.77;;;17.27;74.68
50302;BME280;36550;50.472;19.744;2023-09-19T00:19:56;97504.10;;;17.27;74.57
50302;BME280;36550;50.472;19.744;2023-09-19T00:22:41;97502.41;;;17.29;74.80
50302;BME280;36550;50.472;19.744;2023-09-19T00:25:28;97493.23;;;17.30;74.84
50302;BME280;36550;50.472;19.744;2023-09-19T00:28:12;97496.00;;;17.32;74.88
50302;BME280;36550;50.472;19.744;2023-09-19T00:30:56;97486.45;;;17.33;74.95
50302;BME280;36550;50.472;19.744;2023-09-19T00:33:41;97484.39;;;17.34;75.15
50302;BME280;36550;50.472;19.744;2023-09-19T00:36:25;97480.22;;;17.34;75.04
50302;BME280;36550;50.472;19.744;2023-09-19T00:39:09;97475.20;;;17.32;75.32
50302;BME280;36550;50.472;19.744;2023-09-19T00:41:54;97467.18;;;17.30;75.28
50302;BME280;36550;50.472;19.744;2023-09-19T00:44:39;97466.75;;;17.30;75.19
50302;BME280;36550;50.472;19.744;2023-09-19T00:47:23;97466.28;;;17.30;75.40
50302;BME280;36550;50.472;19.744;2023-09-19T00:50:09;97457.26;;;17.31;75.50
50302;BME280;36550;50.472;19.744;2023-09-19T00:52:55;97456.91;;;17.32;75.56
50302;BME280;36550;50.472;19.744;2023-09-19T00:55:42;97453.87;;;17.33;75.65
50302;BME280;36550;50.472;19.744;2023-09-19T00:58:26;97445.13;;;17.32;75.62
50302;BME280;36550;50.472;19.744;2023-09-19T01:01:16;97438.73;;;17.29;75.59
50302;BME280;36550;50.472;19.744;2023-09-19T01:04:01;97434.00;;;17.26;75.59
50302;BME280;36550;50.472;19.744;2023-09-19T01:06:45;97429.59;;;17.23;75.64
50302;BME280;36550;50.472;19.744;2023-09-19T01:09:30;97428.69;;;17.23;75.80
50302;BME280;36550;50.472;19.744;2023-09-19T01:12:16;97427.05;;;17.25;76.08
50302;BME280;36550;50.472;19.744;2023-09-19T01:30:32;97413.86;;;17.34;76.64
50302;BME280;36550;50.472;19.744;2023-09-19T01:33:16;97411.43;;;17.37;76.68
50302;BME280;36550;50.472;19.744;2023-09-19T01:36:00;97407.90;;;17.39;76.84
50302;BME280;36550;50.472;19.744;2023-09-19T01:38:46;97408.34;;;17.40;76.84
50302;BME280;36550;50.472;19.744;2023-09-19T01:44:31;97400.33;;;17.40;76.95
50302;BME280;36550;50.472;19.744;2023-09-19T01:47:32;97403.52;;;17.40;77.19
50302;BME280;36550;50.472;19.744;2023-09-19T01:50:34;97405.58;;;17.43;77.25
50302;BME280;36550;50.472;19.744;2023-09-19T01:53:27;97404.86;;;17.47;77.41
50302;BME280;36550;50.472;19.744;2023-09-19T01:56:24;97404.52;;;17.52;77.48
50302;BME280;36550;50.472;19.744;2023-09-19T01:59:13;97403.83;;;17.54;77.61
50302;BME280;36550;50.472;19.744;2023-09-19T02:01:58;97402.52;;;17.57;77.75
50302;BME280;36550;50.472;19.744;2023-09-19T02:04:43;97401.52;;;17.58;77.68
50302;BME280;36550;50.472;19.744;2023-09-19T02:07:28;97398.30;;;17.61;77.80
50302;BME280;36550;50.472;19.744;2023-09-19T02:10:13;97400.35;;;17.64;77.95
50302;BME280;36550;50.472;19.744;2023-09-19T02:12:57;97399.08;;;17.67;77.93
50302;BME280;36550;50.472;19.744;2023-09-19T02:15:43;97399.77;;;17.70;77.93
50302;BME280;36550;50.472;19.744;2023-09-19T02:18:33;97398.35;;;17.72;77.89
50302;BME280;36550;50.472;19.744;2023-09-19T02:21:19;97397.70;;;17.73;78.03
50302;BME280;36550;50.472;19.744;2023-09-19T02:24:06;97394.67;;;17.73;77.97
50302;BME280;36550;50.472;19.744;2023-09-19T02:26:52;97394.93;;;17.73;77.91
50302;BME280;36550;50.472;19.744;2023-09-19T02:29:38;97393.00;;;17.74;78.04
50302;BME280;36550;50.472;19.744;2023-09-19T02:32:23;97392.13;;;17.75;78.07
50302;BME280;36550;50.472;19.744;2023-09-19T02:35:08;97392.05;;;17.76;78.31
50302;BME280;36550;50.472;19.744;2023-09-19T02:37:55;97386.34;;;17.78;78.28
50302;BME280;36550;50.472;19.744;2023-09-19T02:40:39;97384.64;;;17.81;78.43
50302;BME280;36550;50.472;19.744;2023-09-19T02:43:23;97379.54;;;17.84;78.54
50302;BME280;36550;50.472;19.744;2023-09-19T02:46:07;97380.10;;;17.89;78.52
50302;BME280;36550;50.472;19.744;2023-09-19T02:48:51;97368.38;;;17.94;78.57
50302;BME280;36550;50.472;19.744;2023-09-19T02:51:35;97365.80;;;18.00;78.51
50302;BME280;36550;50.472;19.744;2023-09-19T02:54:20;97362.02;;;18.05;78.51
50302;BME280;36550;50.472;19.744;2023-09-19T02:57:04;97363.54;;;18.11;78.56
50302;BME280;36550;50.472;19.744;2023-09-19T02:59:50;97357.23;;;18.17;78.55
50302;BME280;36550;50.472;19.744;2023-09-19T03:02:34;97355.33;;;18.22;78.57
50302;BME280;36550;50.472;19.744;2023-09-19T03:05:20;97357.17;;;18.27;78.71
50302;BME280;36550;50.472;19.744;2023-09-19T03:08:05;97354.67;;;18.32;78.54
50302;BME280;36550;50.472;19.744;2023-09-19T03:10:50;97351.48;;;18.38;78.78
50302;BME280;36550;50.472;19.744;2023-09-19T03:13:34;97348.48;;;18.43;79.03
50302;BME280;36550;50.472;19.744;2023-09-19T03:16:20;97348.01;;;18.47;79.07
50302;BME280;36550;50.472;19.744;2023-09-19T03:19:08;97344.05;;;18.51;79.22
50302;BME280;36550;50.472;19.744;2023-09-19T03:21:55;97345.75;;;18.55;79.31
50302;BME280;36550;50.472;19.744;2023-09-19T03:24:41;97340.30;;;18.59;79.36
50302;BME280;36550;50.472;19.744;2023-09-19T03:27:27;97339.77;;;18.63;79.45
50302;BME280;36550;50.472;19.744;2023-09-19T03:30:12;97338.14;;;18.67;79.62
50302;BME280;36550;50.472;19.744;2023-09-19T03:32:57;97337.53;;;18.70;79.76
50302;BME280;36550;50.472;19.744;2023-09-19T03:35:41;97334.70;;;18.73;79.86
50302;BME280;36550;50.472;19.744;2023-09-19T03:38:25;97333.48;;;18.74;79.80
50302;BME280;36550;50.472;19.744;2023-09-19T03:41:09;97334.46;;;18.76;79.95
50302;BME280;36550;50.472;19.744;2023-09-19T03:43:58;97336.83;;;18.77;80.00
50302;BME280;36550;50.472;19.744;2023-09-19T03:46:41;97336.80;;;18.78;80.02
50302;BME280;36550;50.472;19.744;2023-09-19T03:49:26;97338.16;;;18.79;80.06
50302;BME280;36550;50.472;19.744;2023-09-19T03:52:10;97334.98;;;18.81;80.20
50302;BME280;36550;50.472;19.744;2023-09-19T03:54:54;97332.57;;;18.83;80.38
50302;BME280;36550;50.472;19.744;2023-09-19T03:57:38;97328.35;;;18.83;80.34
50302;BME280;36550;50.472;19.744;2023-09-19T04:00:22;97330.61;;;18.84;80.56
50302;BME280;36550;50.472;19.744;2023-09-19T04:03:08;97329.70;;;18.85;80.58
50302;BME280;36550;50.472;19.744;2023-09-19T04:05:52;97325.73;;;18.84;80.65
50302;BME280;36550;50.472;19.744;2023-09-19T04:08:36;97325.60;;;18.85;80.76
50302;BME280;36550;50.472;19.744;2023-09-19T04:11:20;97325.51;;;18.84;80.65
50302;BME280;36550;50.472;19.744;2023-09-19T04:14:04;97332.14;;;18.85;80.79
50302;BME280;36550;50.472;19.744;2023-09-19T04:16:48;97332.18;;;18.86;80.98
50302;BME280;36550;50.472;19.744;2023-09-19T04:19:32;97340.35;;;18.86;81.01
50302;BME280;36550;50.472;19.744;2023-09-19T04:22:16;97344.67;;;18.88;81.09
50302;BME280;36550;50.472;19.744;2023-09-19T04:25:00;97349.36;;;18.89;81.16
50302;BME280;36550;50.472;19.744;2023-09-19T04:27:44;97354.07;;;18.90;81.25
50302;BME280;36550;50.472;19.744;2023-09-19T04:30:28;97353.66;;;18.92;81.36
50302;BME280;36550;50.472;19.744;2023-09-19T04:33:12;97351.79;;;18.91;81.47
50302;BME280;36550;50.472;19.744;2023-09-19T04:35:58;97352.51;;;18.91;81.61
50302;BME280;36550;50.472;19.744;2023-09-19T04:38:42;97354.23;;;18.94;81.52
50302;BME280;36550;50.472;19.744;2023-09-19T04:41:26;97351.30;;;18.93;81.64
50302;BME280;36550;50.472;19.744;2023-09-19T04:44:10;97352.24;;;18.94;81.70
50302;BME280;36550;50.472;19.744;2023-09-19T04:46:54;97349.86;;;18.95;81.98
50302;BME280;36550;50.472;19.744;2023-09-19T04:49:38;97345.90;;;18.96;82.06
50302;BME280;36550;50.472;19.744;2023-09-19T04:52:23;97349.09;;;18.98;82.31
50302;BME280;36550;50.472;19.744;2023-09-19T04:55:14;97351.61;;;18.99;82.43
50302;BME280;36550;50.472;19.744;2023-09-19T04:58:01;97350.58;;;19.00;82.56
50302;BME280;36550;50.472;19.744;2023-09-19T05:00:46;97353.04;;;19.00;82.60
50302;BME280;36550;50.472;19.744;2023-09-19T05:03:30;97351.69;;;19.01;82.66
50302;BME280;36550;50.472;19.744;2023-09-19T05:06:15;97350.67;;;18.98;82.81
50302;BME280;36550;50.472;19.744;2023-09-19T05:08:59;97349.66;;;18.97;82.75
50302;BME280;36550;50.472;19.744;2023-09-19T05:11:44;97347.77;;;18.94;83.00
50302;BME280;36550;50.472;19.744;2023-09-19T05:14:28;97349.59;;;18.91;83.16
50302;BME280;36550;50.472;19.744;2023-09-19T05:17:13;97351.77;;;18.87;83.31
50302;BME280;36550;50.472;19.744;2023-09-19T05:19:57;97348.56;;;18.83;83.51
50302;BME280;36550;50.472;19.744;2023-09-19T05:22:42;97344.79;;;18.81;83.54
50302;BME280;36550;50.472;19.744;2023-09-19T05:25:26;97339.55;;;18.79;83.78
50302;BME280;36550;50.472;19.744;2023-09-19T05:28:13;97338.05;;;18.77;83.95
50302;BME280;36550;50.472;19.744;2023-09-19T05:31:00;97339.41;;;18.76;84.02
50302;BME280;36550;50.472;19.744;2023-09-19T05:33:46;97340.27;;;18.76;84.27
50302;BME280;36550;50.472;19.744;2023-09-19T05:36:30;97336.42;;;18.77;84.52
50302;BME280;36550;50.472;19.744;2023-09-19T05:39:14;97339.11;;;18.77;84.69
50302;BME280;36550;50.472;19.744;2023-09-19T05:41:59;97341.36;;;18.77;84.66
50302;BME280;36550;50.472;19.744;2023-09-19T05:44:43;97337.25;;;18.75;84.79
50302;BME280;36550;50.472;19.744;2023-09-19T05:47:27;97341.33;;;18.76;84.96
50302;BME280;36550;50.472;19.744;2023-09-19T05:50:12;97336.51;;;18.77;84.93
50302;BME280;36550;50.472;19.744;2023-09-19T05:52:56;97339.98;;;18.78;85.12
50302;BME280;36550;50.472;19.744;2023-09-19T05:55:40;97337.03;;;18.80;85.15
50302;BME280;36550;50.472;19.744;2023-09-19T05:58:25;97336.48;;;18.81;85.21
50302;BME280;36550;50.472;19.744;2023-09-19T06:01:09;97334.82;;;18.82;85.36
50302;BME280;36550;50.472;19.744;2023-09-19T06:03:54;97337.30;;;18.83;85.46
50302;BME280;36550;50.472;19.744;2023-09-19T06:06:38;97339.34;;;18.86;85.66
50302;BME280;36550;50.472;19.744;2023-09-19T06:09:24;97344.08;;;18.90;85.84
50302;BME280;36550;50.472;19.744;2023-09-19T06:12:08;97349.52;;;18.92;85.87
50302;BME280;36550;50.472;19.744;2023-09-19T06:14:52;97350.36;;;18.92;85.92
50302;BME280;36550;50.472;19.744;2023-09-19T06:17:36;97350.46;;;18.93;85.89
50302;BME280;36550;50.472;19.744;2023-09-19T06:20:24;97355.99;;;18.94;86.13
50302;BME280;36550;50.472;19.744;2023-09-19T06:23:09;97366.98;;;18.95;86.20
50302;BME280;36550;50.472;19.744;2023-09-19T06:25:53;97372.40;;;18.96;86.33
50302;BME280;36550;50.472;19.744;2023-09-19T06:28:38;97374.20;;;18.94;86.42
50302;BME280;36550;50.472;19.744;2023-09-19T06:31:22;97374.27;;;18.91;86.37
50302;BME280;36550;50.472;19.744;2023-09-19T06:34:10;97371.33;;;18.89;86.52
50302;BME280;36550;50.472;19.744;2023-09-19T06:36:54;97376.66;;;18.87;86.83
50302;BME280;36550;50.472;19.744;2023-09-19T06:39:39;97378.18;;;18.83;86.76
50302;BME280;36550;50.472;19.744;2023-09-19T06:42:23;97379.77;;;18.81;86.83
50302;BME280;36550;50.472;19.744;2023-09-19T06:45:07;97378.81;;;18.81;87.03
50302;BME280;36550;50.472;19.744;2023-09-19T06:47:55;97381.17;;;18.79;87.16
50302;BME280;36550;50.472;19.744;2023-09-19T06:50:41;97378.34;;;18.75;87.24
50302;BME280;36550;50.472;19.744;2023-09-19T06:53:28;97381.70;;;18.71;87.29
50302;BME280;36550;50.472;19.744;2023-09-19T06:56:15;97381.59;;;18.69;87.09
50302;BME280;36550;50.472;19.744;2023-09-19T06:58:59;97387.47;;;18.70;87.34
50302;BME280;36550;50.472;19.744;2023-09-19T07:01:43;97392.56;;;18.70;87.34
50302;BME280;36550;50.472;19.744;2023-09-19T07:04:28;97397.15;;;18.72;87.49
50302;BME280;36550;50.472;19.744;2023-09-19T07:07:12;97394.42;;;18.74;87.52
50302;BME280;36550;50.472;19.744;2023-09-19T07:09:58;97405.25;;;18.74;87.74
50302;BME280;36550;50.472;19.744;2023-09-19T07:12:41;97411.67;;;18.75;87.65
50302;BME280;36550;50.472;19.744;2023-09-19T07:15:28;97418.00;;;18.75;87.72
50302;BME280;36550;50.472;19.744;2023-09-19T07:18:16;97421.06;;;18.74;87.83
50302;BME280;36550;50.472;19.744;2023-09-19T07:21:00;97422.52;;;18.71;87.69
50302;BME280;36550;50.472;19.744;2023-09-19T07:23:48;97427.72;;;18.66;87.87
50302;BME280;36550;50.472;19.744;2023-09-19T07:26:34;97433.60;;;18.62;87.75
50302;BME280;36550;50.472;19.744;2023-09-19T07:29:18;97438.97;;;18.60;87.86
50302;BME280;36550;50.472;19.744;2023-09-19T07:32:02;97439.08;;;18.55;87.82
50302;BME280;36550;50.472;19.744;2023-09-19T07:34:46;97443.85;;;18.51;87.72
50302;BME280;36550;50.472;19.744;2023-09-19T07:37:31;97453.34;;;18.42;87.74
50302;BME280;36550;50.472;19.744;2023-09-19T07:40:17;97448.06;;;18.36;87.69
50302;BME280;36550;50.472;19.744;2023-09-19T07:43:02;97444.93;;;18.35;88.01
50302;BME280;36550;50.472;19.744;2023-09-19T07:45:47;97454.73;;;18.39;88.36
50302;BME280;36550;50.472;19.744;2023-09-19T07:48:32;97459.05;;;18.41;88.40
50302;BME280;36550;50.472;19.744;2023-09-19T07:51:16;97465.06;;;18.43;88.54
50302;BME280;36550;50.472;19.744;2023-09-19T07:54:00;97465.20;;;18.44;88.52
50302;BME280;36550;50.472;19.744;2023-09-19T07:56:44;97478.52;;;18.45;88.35
50302;BME280;36550;50.472;19.744;2023-09-19T07:59:29;97483.67;;;18.45;88.57
50302;BME280;36550;50.472;19.744;2023-09-19T08:02:13;97488.72;;;18.45;88.46
50302;BME280;36550;50.472;19.744;2023-09-19T08:05:02;97488.10;;;18.46;88.60
50302;BME280;36550;50.472;19.744;2023-09-19T08:07:49;97490.67;;;18.48;88.56
50302;BME280;36550;50.472;19.744;2023-09-19T08:10:34;97494.34;;;18.48;88.48
50302;BME280;36550;50.472;19.744;2023-09-19T08:13:19;97495.40;;;18.48;88.51
50302;BME280;36550;50.472;19.744;2023-09-19T08:16:05;97509.95;;;18.49;88.80
50302;BME280;36550;50.472;19.744;2023-09-19T08:18:49;97514.36;;;18.43;88.68
50302;BME280;36550;50.472;19.744;2023-09-19T08:21:37;97515.11;;;18.36;89.02
50302;BME280;36550;50.472;19.744;2023-09-19T08:24:21;97518.50;;;18.28;88.83
50302;BME280;36550;50.472;19.744;2023-09-19T08:27:05;97524.86;;;18.23;88.75
50302;BME280;36550;50.472;19.744;2023-09-19T08:29:53;97534.76;;;18.22;88.78
50302;BME280;36550;50.472;19.744;2023-09-19T08:32:37;97538.02;;;18.22;88.91
50302;BME280;36550;50.472;19.744;2023-09-19T08:35:21;97537.95;;;18.22;88.79
50302;BME280;36550;50.472;19.744;2023-09-19T08:38:05;97543.95;;;18.25;89.14
50302;BME280;36550;50.472;19.744;2023-09-19T08:40:50;97551.58;;;18.30;89.24
50302;BME280;36550;50.472;19.744;2023-09-19T08:43:34;97553.15;;;18.34;89.39
50302;BME280;36550;50.472;19.744;2023-09-19T08:46:20;97552.31;;;18.35;89.37
50302;BME280;36550;50.472;19.744;2023-09-19T08:49:05;97555.73;;;18.37;89.20
50302;BME280;36550;50.472;19.744;2023-09-19T08:52:01;97553.63;;;18.38;89.23
50302;BME280;36550;50.472;19.744;2023-09-19T08:54:52;97557.36;;;18.41;89.33
50302;BME280;36550;50.472;19.744;2023-09-19T08:57:38;97560.46;;;18.42;89.30
50302;BME280;36550;50.472;19.744;2023-09-19T09:00:28;97564.32;;;18.44;89.25
50302;BME280;36550;50.472;19.744;2023-09-19T09:03:13;97569.50;;;18.45;89.34
50302;BME280;36550;50.472;19.744;2023-09-19T09:05:59;97568.74;;;18.48;89.47
50302;BME280;36550;50.472;19.744;2023-09-19T09:08:44;97571.43;;;18.49;89.47
50302;BME280;36550;50.472;19.744;2023-09-19T09:11:28;97576.59;;;18.49;89.39
50302;BME280;36550;50.472;19.744;2023-09-19T09:14:13;97576.80;;;18.49;89.48
50302;BME280;36550;50.472;19.744;2023-09-19T09:16:57;97577.81;;;18.49;89.31
50302;BME280;36550;50.472;19.744;2023-09-19T09:19:43;97575.37;;;18.49;89.45
50302;BME280;36550;50.472;19.744;2023-09-19T09:22:27;97579.12;;;18.51;89.41
50302;BME280;36550;50.472;19.744;2023-09-19T09:25:11;97579.16;;;18.50;89.42
50302;BME280;36550;50.472;19.744;2023-09-19T09:27:59;97585.23;;;18.50;89.46
50302;BME280;36550;50.472;19.744;2023-09-19T09:30:45;97586.68;;;18.50;89.42
50302;BME280;36550;50.472;19.744;2023-09-19T09:33:30;97583.48;;;18.50;89.46
50302;BME280;36550;50.472;19.744;2023-09-19T09:36:14;97585.52;;;18.51;89.60
50302;BME280;36550;50.472;19.744;2023-09-19T09:38:58;97588.39;;;18.52;89.51
50302;BME280;36550;50.472;19.744;2023-09-19T09:41:43;97590.77;;;18.52;89.58
50302;BME280;36550;50.472;19.744;2023-09-19T09:44:27;97593.38;;;18.52;89.70
50302;BME280;36550;50.472;19.744;2023-09-19T09:47:40;97598.73;;;18.51;89.59
50302;BME280;36550;50.472;19.744;2023-09-19T09:50:30;97595.84;;;18.51;89.82
50302;BME280;36550;50.472;19.744;2023-09-19T09:53:34;97600.87;;;18.50;89.67
50302;BME280;36550;50.472;19.744;2023-09-19T09:56:18;97602.63;;;18.49;89.33
50302;BME280;36550;50.472;19.744;2023-09-19T09:59:02;97598.05;;;18.50;89.49
50302;BME280;36550;50.472;19.744;2023-09-19T10:01:47;97597.17;;;18.52;89.61
50302;BME280;36550;50.472;19.744;2023-09-19T10:04:34;97598.59;;;18.52;89.57
50302;BME280;36550;50.472;19.744;2023-09-19T10:07:24;97598.40;;;18.53;89.64
50302;BME280;36550;50.472;19.744;2023-09-19T10:10:10;97601.36;;;18.55;89.73
50302;BME280;36550;50.472;19.744;2023-09-19T10:13:00;97601.34;;;18.56;89.53
50302;BME280;36550;50.472;19.744;2023-09-19T10:15:48;97603.52;;;18.58;89.47
50302;BME280;36550;50.472;19.744;2023-09-19T10:18:36;97603.66;;;18.59;89.46
50302;BME280;36550;50.472;19.744;2023-09-19T10:21:21;97607.46;;;18.60;89.61
50302;BME280;36550;50.472;19.744;2023-09-19T10:24:07;97605.11;;;18.60;89.35
50302;BME280;36550;50.472;19.744;2023-09-19T10:26:53;97609.68;;;18.61;89.44
50302;BME280;36550;50.472;19.744;2023-09-19T10:29:39;97608.11;;;18.64;89.61
50302;BME280;36550;50.472;19.744;2023-09-19T10:32:25;97611.60;;;18.67;89.62
50302;BME280;36550;50.472;19.744;2023-09-19T10:35:14;97608.74;;;18.71;89.60
50302;BME280;36550;50.472;19.744;2023-09-19T10:38:03;97614.65;;;18.73;89.60
50302;BME280;36550;50.472;19.744;2023-09-19T10:40:52;97609.88;;;18.75;89.72
50302;BME280;36550;50.472;19.744;2023-09-19T10:43:38;97612.30;;;18.76;89.73
50302;BME280;36550;50.472;19.744;2023-09-19T10:46:23;97612.09;;;18.76;89.74
50302;BME280;36550;50.472;19.744;2023-09-19T10:49:10;97617.77;;;18.73;89.61
50302;BME280;36550;50.472;19.744;2023-09-19T10:51:57;97624.38;;;18.73;89.72
50302;BME280;36550;50.472;19.744;2023-09-19T10:54:46;97628.60;;;18.75;89.83
50302;BME280;36550;50.472;19.744;2023-09-19T10:57:33;97632.65;;;18.77;89.89
50302;BME280;36550;50.472;19.744;2023-09-19T11:00:17;97631.81;;;18.78;90.15
50302;BME280;36550;50.472;19.744;2023-09-19T11:03:17;97633.58;;;18.79;90.07
50302;BME280;36550;50.472;19.744;2023-09-19T11:09:04;97637.21;;;18.77;89.93
50302;BME280;36550;50.472;19.744;2023-09-19T11:11:54;97640.50;;;18.78;89.92
50302;BME280;36550;50.472;19.744;2023-09-19T11:14:40;97645.21;;;18.79;89.83
50302;BME280;36550;50.472;19.744;2023-09-19T11:17:38;97639.68;;;18.83;90.02
50302;BME280;36550;50.472;19.744;2023-09-19T11:20:25;97639.41;;;18.86;90.04
50302;BME280;36550;50.472;19.744;2023-09-19T11:26:01;97640.63;;;18.88;90.13
50302;BME280;36550;50.472;19.744;2023-09-19T11:28:46;97642.73;;;18.87;90.01
50302;BME280;36550;50.472;19.744;2023-09-19T11:31:43;97640.10;;;18.86;90.17
50302;BME280;36550;50.472;19.744;2023-09-19T11:34:42;97643.42;;;18.84;90.38
50302;BME280;36550;50.472;19.744;2023-09-19T11:40:16;97644.66;;;18.81;90.48
50302;BME280;36550;50.472;19.744;2023-09-19T11:43:29;97647.00;;;18.81;90.60
50302;BME280;36550;50.472;19.744;2023-09-19T11:46:15;97648.50;;;18.83;90.72
50302;BME280;36550;50.472;19.744;2023-09-19T11:49:07;97648.91;;;18.87;90.91
50302;BME280;36550;50.472;19.744;2023-09-19T11:51:58;97647.13;;;18.89;90.86
50302;BME280;36550;50.472;19.744;2023-09-19T11:54:55;97648.48;;;18.90;90.92
50302;BME280;36550;50.472;19.744;2023-09-19T11:57:41;97649.77;;;18.94;91.09
50302;BME280;36550;50.472;19.744;2023-09-19T12:00:25;97650.68;;;18.97;91.03
50302;BME280;36550;50.472;19.744;2023-09-19T12:03:12;97645.20;;;18.99;91.03
50302;BME280;36550;50.472;19.744;2023-09-19T12:05:58;97643.06;;;19.00;90.97
50302;BME280;36550;50.472;19.744;2023-09-19T12:08:43;97646.67;;;19.03;91.02
50302;BME280;36550;50.472;19.744;2023-09-19T12:11:31;97650.26;;;19.06;91.18
50302;BME280;36550;50.472;19.744;2023-09-19T12:14:23;97653.17;;;19.07;91.13
50302;BME280;36550;50.472;19.744;2023-09-19T12:17:08;97655.66;;;19.08;91.33
50302;BME280;36550;50.472;19.744;2023-09-19T12:19:55;97657.55;;;19.06;90.93
50302;BME280;36550;50.472;19.744;2023-09-19T12:22:45;97668.77;;;19.04;90.87
50302;BME280;36550;50.472;19.744;2023-09-19T12:25:42;97667.47;;;19.02;90.81
50302;BME280;36550;50.472;19.744;2023-09-19T12:28:30;97672.57;;;19.02;90.81
50302;BME280;36550;50.472;19.744;2023-09-19T12:31:15;97679.54;;;19.02;90.95
50302;BME280;36550;50.472;19.744;2023-09-19T12:34:02;97684.77;;;19.02;90.96
50302;BME280;36550;50.472;19.744;2023-09-19T12:36:47;97687.15;;;19.02;91.06
50302;BME280;36550;50.472;19.744;2023-09-19T12:39:31;97689.66;;;19.02;90.89
50302;BME280;36550;50.472;19.744;2023-09-19T12:42:20;97694.71;;;19.04;91.29
50302;BME280;36550;50.472;19.744;2023-09-19T12:45:07;97698.43;;;19.08;91.29
50302;BME280;36550;50.472;19.744;2023-09-19T12:51:34;97700.95;;;19.09;90.80
50302;BME280;36550;50.472;19.744;2023-09-19T12:54:18;97704.23;;;19.08;90.67
50302;BME280;36550;50.472;19.744;2023-09-19T12:57:03;97704.66;;;19.08;90.51
50302;BME280;36550;50.472;19.744;2023-09-19T12:59:52;97709.06;;;19.06;90.16
50302;BME280;36550;50.472;19.744;2023-09-19T13:02:36;97709.52;;;19.03;89.98
50302;BME280;36550;50.472;19.744;2023-09-19T13:05:20;97714.52;;;19.04;90.01
50302;BME280;36550;50.472;19.744;2023-09-19T13:08:18;97712.70;;;19.04;89.86
50302;BME280;36550;50.472;19.744;2023-09-19T13:11:17;97711.46;;;19.05;90.00
50302;BME280;36550;50.472;19.744;2023-09-19T13:14:25;97714.80;;;19.06;89.87
50302;BME280;36550;50.472;19.744;2023-09-19T13:17:11;97710.23;;;19.06;89.91
50302;BME280;36550;50.472;19.744;2023-09-19T13:20:03;97712.73;;;19.06;89.87
50302;BME280;36550;50.472;19.744;2023-09-19T13:22:50;97716.48;;;19.07;90.02
50302;BME280;36550;50.472;19.744;2023-09-19T13:25:38;97716.64;;;19.10;90.09
50302;BME280;36550;50.472;19.744;2023-09-19T13:28:23;97718.63;;;19.09;89.83
50302;BME280;36550;50.472;19.744;2023-09-19T13:31:09;97715.79;;;19.07;89.79
50302;BME280;36550;50.472;19.744;2023-09-19T13:33:54;97717.61;;;19.03;89.73
50302;BME280;36550;50.472;19.744;2023-09-19T13:36:38;97720.36;;;19.01;89.57
50302;BME280;36550;50.472;19.744;2023-09-19T13:39:23;97716.63;;;19.02;89.59
50302;BME280;36550;50.472;19.744;2023-09-19T13:42:08;97719.48;;;19.03;89.57
50302;BME280;36550;50.472;19.744;2023-09-19T13:44:56;97716.49;;;19.03;89.43
50302;BME280;36550;50.472;19.744;2023-09-19T13:47:40;97718.55;;;19.01;89.30
50302;BME280;36550;50.472;19.744;2023-09-19T13:50:24;97714.97;;;19.00;89.04
50302;BME280;36550;50.472;19.744;2023-09-19T13:53:10;97714.86;;;19.00;89.22
50302;BME280;36550;50.472;19.744;2023-09-19T13:55:55;97715.22;;;19.00;89.09
50302;BME280;36550;50.472;19.744;2023-09-19T13:58:40;97714.64;;;19.00;89.24
50302;BME280;36550;50.472;19.744;2023-09-19T14:01:25;97718.61;;;19.04;89.64
50302;BME280;36550;50.472;19.744;2023-09-19T14:04:11;97716.54;;;19.07;89.56
50302;BME280;36550;50.472;19.744;2023-09-19T14:06:55;97719.75;;;19.08;89.47
50302;BME280;36550;50.472;19.744;2023-09-19T14:09:41;97719.59;;;19.11;89.56
50302;BME280;36550;50.472;19.744;2023-09-19T14:12:25;97722.41;;;19.14;89.37
50302;BME280;36550;50.472;19.744;2023-09-19T14:15:10;97724.60;;;19.13;89.32
50302;BME280;36550;50.472;19.744;2023-09-19T14:17:58;97724.59;;;19.16;89.36
50302;BME280;36550;50.472;19.744;2023-09-19T14:20:44;97722.27;;;19.20;89.51
50302;BME280;36550;50.472;19.744;2023-09-19T14:23:28;97725.97;;;19.24;89.72
50302;BME280;36550;50.472;19.744;2023-09-19T14:26:12;97729.45;;;19.29;89.80
50302;BME280;36550;50.472;19.744;2023-09-19T14:28:57;97723.91;;;19.29;89.61
50302;BME280;36550;50.472;19.744;2023-09-19T14:31:41;97721.83;;;19.29;89.48
50302;BME280;36550;50.472;19.744;2023-09-19T14:34:26;97724.50;;;19.32;89.70
50302;BME280;36550;50.472;19.744;2023-09-19T14:37:09;97731.47;;;19.34;89.63
50302;BME280;36550;50.472;19.744;2023-09-19T14:39:55;97732.86;;;19.34;89.53
50302;BME280;36550;50.472;19.744;2023-09-19T14:42:39;97732.54;;;19.34;89.58
50302;BME280;36550;50.472;19.744;2023-09-19T14:45:24;97734.80;;;19.35;89.69
50302;BME280;36550;50.472;19.744;2023-09-19T14:48:09;97735.40;;;19.36;89.55
50302;BME280;36550;50.472;19.744;2023-09-19T14:50:53;97730.83;;;19.39;89.72
50302;BME280;36550;50.472;19.744;2023-09-19T14:53:40;97727.91;;;19.38;89.48
50302;BME280;36550;50.472;19.744;2023-09-19T14:56:24;97724.27;;;19.37;89.33
50302;BME280;36550;50.472;19.744;2023-09-19T14:59:09;97724.23;;;19.36;89.44